Terminal Aerodrome Forecast
Issued by NWS

Home | Current Version | Previous Version | Text Only | Print | Product List | Glossary On
Versions: 1 2 3 4 5 6 7 8 9 10 11 12
000
FTUS46 KEKA 282300
TAFUKI
TAF
KUKI 282340Z 2900/2924 15012KT P6SM FEW150 SCT200
     FM290100 17007KT P6SM SCT200
     FM290500 VRB03KT P6SM BKN200
     FM291400 14005KT P6SM VCSH SCT060 SCT120 BKN180=

USA.gov is the U.S. government's official web portal to all federal, state and local government web resources and services.